WMKKWBGR

Guest
Details From WMKK - Kuala Lumpur Intl - Sepang
To WBGR - Miri
Flight Number -
Tags Generated
Created
Modified
Stats Distance 742 nm / 1,375 km
Max Altitude 0 ft / 0 m
Waypoints 4
Social Downloads 3
Likes 0
Share VATSIM

Download

Looking for another format? Having issues loading an existing format? Contact us
Advertisement - Login to hide

Notes

Generated

Route

WMKK LEBIN MYY WBGR

ID Type Via Altitude Latitude Longitude Leg Dist Tot Dist Heading (true) Name
O WMKK APT - 0 ft / 0 m 2.77828˚ 101.70172˚ - 0 nm - -
LEBIN FIX - 0 ft / 0 m 3.24389˚ 106.10111˚ 265 nm 265 nm 84° / 84° -
MYY NDB - 0 ft / 0 m 4.29958˚ 113.97647˚ 476 nm 741 nm 82° / 83° MIRI NDB
O WBGR APT - 0 ft / 0 m 4.31083˚ 113.98159˚ 0 nm 742 nm 24° / 24° -

Altitude Profile

Advertisement - Login to hide

Weather


0- 5 10 15 20 25 30 35+ Temperature / ° C

Clouds and Precipitation
Forecast for 2017-12-18 06:00 UTC. Updated 34 minutes ago

Ground ~20,000 ft ~40,000 ft Winds

WMKK

Details ICAO WMKK (KUL)
Name Kuala Lumpur Intl - Sepang
Region Malaysia (Peninsular Malaysia)
Timezone Asia/Kuala_Lumpur (UTC+8.0)
Stats Elevation 70 ft / 21 m (AMSL)
Location 2.745578° 101.709913°
Runways 2
Magnetic Variation 0.000° E

METAR

WMKK 180330Z 07013KT 040V110 9999 FEW018 BKN280 31/22 Q1012 NOSIG

Decode

TAF

TAF WMKK 172300Z 1800/1906 05008KT 9999 FEW018 SCT140 BKN280 PROB30 TEMPO 1818/1822 3000 TSRA FEW017CB SCT020

Decode

Departure Runways

ID Width Length Bearing (true) Bearing (mag) Surface Threshold Offset Overrun Length
14L 197 ft / 60 m 13,577 ft / 4,138 m 146.13° 146.13° Asphalt 500 ft / 152 m 0 ft / 0 m
14R 197 ft / 60 m 13,337 ft / 4,065 m 146.22° 146.22° Asphalt 500 ft / 152 m 0 ft / 0 m
32L 197 ft / 60 m 13,337 ft / 4,065 m 326.22° 326.22° Asphalt 500 ft / 152 m 0 ft / 0 m
32R 197 ft / 60 m 13,577 ft / 4,138 m 326.13° 326.13° Asphalt 500 ft / 152 m 0 ft / 0 m

WBGR

Details ICAO WBGR (MYY)
Name Miri
Region Brunei and Malaysia
Timezone Asia/Kuching (UTC+8.0)
Stats Elevation 59 ft / 18 m (AMSL)
Location 4.322068° 113.986806°
Runways 1
Magnetic Variation 0.084° W

METAR

WBGR 180300Z VRB02KT 9999 SCT012 BKN150 27/24 Q1010

Decode

TAF

Not found

Destination Runways

ID Width Length Bearing (true) Bearing (mag) Surface Threshold Offset Overrun Length
02 197 ft / 60 m 9,040 ft / 2,755 m 24.85° 24.93° Asphalt 0 ft / 0 m 200 ft / 61 m
20 197 ft / 60 m 9,040 ft / 2,755 m 204.85° 204.93° Asphalt 0 ft / 0 m 200 ft / 61 m

Approach Navaids

Runway Type Ident Frequency Range Bearing (true) Bearing (mag) Slope Elevation
02 Localiser IMR 110.10 MHz 18 nm / 33 km 25.02° 25.10° - 59 ft / 18 m (AMSL)
02 Glidescope IMR 110.10 MHz 10 nm / 19 km 24.85° 24.93° 3.00° 56 ft / 17 m (AMSL)
02 DME IMR 110.10 MHz 18 nm / 33 km - - - 59 ft / 18 m (AMSL)

Popular Alternatives